Domov               UVHVVR             MKGP            O straneh              
ZDRAVSTVENO VARSTVO RASTLIN
  MREŽA AGROMET. POSTAJ
 ► PROGNOSTIČNA OBVESTILA
AGROMETEOROLOŠKI PODATKI -
ARSO
OBVLADOVANJE TVEGANJ ZARADI
NEUGODNIH VREMENSKIH RAZMER
  ► NARAVNE NESREČE
  ► SUŠA/MOČA
  ► NAMAKANJE
  ► ŽLED (gozdarstvo)
KARTOGRAFSKI PRIKAZI
SPLETNE POVEZAVE
PROJEKTI IN PUBLIKACIJE

AGROMETEOROLOŠKA MREŽA: VREMENSKE POSTAJE IN FENOLOŠKA OPAZOVANJA

Pregled podatkov za lokacijo Podbrezje, meteorološka postaja 855704

Pregled senzorjev na lokaciji

ID Ime Zadnja
vrednost
Datum
zadnje
spremembe
Tip
senzorja
4021 Temperatura 2 m ( °C) 23,09 °C 24.6.2017 22:00 50YA
4022 Relativna vlaga 2 m (% RH) 86,32 % RH 24.6.2017 22:00 50YA
4023 Omočenost lista (U) 1 U 24.6.2017 22:00 A730WET
4024 Padavine 0.2 mm (mm) 0 mm 24.6.2017 22:00 Rain-O-Matic

Pregled podatkov zadnjih 24 ur

Zap.
št.
Datum in čas Podbrezje
Omočenost
lista
Padavine
0.2
mm
Relativna
vlaga
2
m
Temperatura
2
m
0 24.6.2017 21:00 1 0 86,32 23,09
1 24.6.2017 20:30 0 0 86,29 23,33
2 24.6.2017 20:00 0 0 82,71 24,07
3 24.6.2017 19:30 0 0 78,69 24,79
4 24.6.2017 19:00 0 0 74,49 25,52
5 24.6.2017 18:30 0 0 72,5 26,1
6 24.6.2017 18:00 0 0 67,91 27,27
7 24.6.2017 17:30 0 0 64,16 27,59
8 24.6.2017 17:00 0 0 58,86 27,77
9 24.6.2017 16:30 0 0 60,57 27,14
10 24.6.2017 16:00 0 0 64,48 26,57
11 24.6.2017 15:30 10 0 73,23 24,66
12 24.6.2017 15:00 6 0,2 72,46 24,86
13 24.6.2017 14:30 0 0,2 72,28 25,95
14 24.6.2017 14:00 10 0,6 84,94 24,03
15 24.6.2017 13:30 1 0 56,63 28,46
16 24.6.2017 13:00 0 0 47,08 30,7
17 24.6.2017 12:30 0 0 45,82 31,37
18 24.6.2017 12:00 0 0 48,57 30,81
19 24.6.2017 11:30 0 0 51,99 30,12
20 24.6.2017 11:00 0 0 54,25 29,32
21 24.6.2017 10:30 0 0 57,29 28,77
22 24.6.2017 10:00 0 0 60,38 27,9
23 24.6.2017 09:30 0 0 62,53 27,34
24 24.6.2017 09:00 0 0 65,36 26,42
25 24.6.2017 08:30 0 0 67,05 25,31
26 24.6.2017 08:00 0 0 70,32 24,35
27 24.6.2017 07:30 0 0 71,16 23,64
28 24.6.2017 07:00 0 0 75,72 22,6
29 24.6.2017 06:30 0 0 83,44 20,75
30 24.6.2017 06:00 10 0 88,95 19,58
31 24.6.2017 05:30 10 0 94,76 17,97
32 24.6.2017 05:00 10 0 95,93 17,34
33 24.6.2017 04:30 10 0 95,69 17,43
34 24.6.2017 04:00 10 0 95,41 17,73
35 24.6.2017 03:30 10 0 94,6 18,13
36 24.6.2017 03:00 10 0 93,95 18,33
37 24.6.2017 02:30 8 0 92,15 18,76
38 24.6.2017 02:00 3 0 90,5 19,24
39 24.6.2017 01:30 2 0 89,38 19,72
40 24.6.2017 01:00 1 0 88,43 20,1
41 24.6.2017 00:30 1 0 88,24 20,29
42 24.6.2017 00:00 2 0 88,1 20,2
43 23.6.2017 23:30 2 0 86,85 20,43
44 23.6.2017 23:00 0 0 84,32 20,89
© 2011 Ministrstvo za kmetijstvo, gozdarstvo in prehrano. Vse pravice pridržane.